Aviation Digital Data Service (ADDS)

Output produced by METARs form (1648 UTC 22 September 2019)
found at http://www.aviationweather.gov/metar/data/
 
METAR text: RJFG 220900Z 19017G29KT 150V230 8000 FEW015 SCT020 BKN030 25/22 Q1004
Conditions at: RJFG (TANEGASHIMA AIRP, JP) observed 0900 UTC 22 September 2019
Temperature: 25.0°C (77°F)
Dewpoint: 22.0°C (72°F) [RH = 83%]
Pressure (altimeter): 29.65 inches Hg (1004.0 mb)
Winds: from the S (190 degrees) at 20 MPH (17 knots; 8.7 m/s)
gusting to 33 MPH (29 knots; 14.9 m/s)
Visibility: 5 miles ( 8 km)
Ceiling: 3000 feet AGL
Clouds: few clouds at 1500 feet AGL
scattered clouds at 2000 feet AGL
broken clouds at 3000 feet AGL
Weather: no significant weather observed at this time

METAR text: RJFG 220800Z 19014G25KT 150V240 6000 -SHRA FEW010 SCT015 BKN020 25/23 Q1003
Conditions at: RJFG (TANEGASHIMA AIRP, JP) observed 0800 UTC 22 September 2019
Temperature: 25.0°C (77°F)
Dewpoint: 23.0°C (73°F) [RH = 89%]
Pressure (altimeter): 29.62 inches Hg (1003.0 mb)
Winds: from the S (190 degrees) at 16 MPH (14 knots; 7.2 m/s)
gusting to 29 MPH (25 knots; 12.9 m/s)
Visibility: 4 miles ( 6 km)
Ceiling: 2000 feet AGL
Clouds: few clouds at 1000 feet AGL
scattered clouds at 1500 feet AGL
broken clouds at 2000 feet AGL
Weather: -SHRA  (light rain showers)

METAR text: RJFG 220700Z 19015G27KT 150V250 6000 FEW012 SCT015 BKN020 26/23 Q1003
Conditions at: RJFG (TANEGASHIMA AIRP, JP) observed 0700 UTC 22 September 2019
Temperature: 26.0°C (79°F)
Dewpoint: 23.0°C (73°F) [RH = 84%]
Pressure (altimeter): 29.62 inches Hg (1003.0 mb)
Winds: from the S (190 degrees) at 17 MPH (15 knots; 7.7 m/s)
gusting to 31 MPH (27 knots; 13.9 m/s)
Visibility: 4 miles ( 6 km)
Ceiling: 2000 feet AGL
Clouds: few clouds at 1200 feet AGL
scattered clouds at 1500 feet AGL
broken clouds at 2000 feet AGL
Weather: no significant weather observed at this time

METAR text: RJFG 220600Z 19014KT 6000 FEW010 SCT012 BKN015 26/24 Q1002
Conditions at: RJFG (TANEGASHIMA AIRP, JP) observed 0600 UTC 22 September 2019
Temperature: 26.0°C (79°F)
Dewpoint: 24.0°C (75°F) [RH = 89%]
Pressure (altimeter): 29.59 inches Hg (1002.0 mb)
Winds: from the S (190 degrees) at 16 MPH (14 knots; 7.2 m/s)
Visibility: 4 miles ( 6 km)
Ceiling: 1500 feet AGL
Clouds: few clouds at 1000 feet AGL
scattered clouds at 1200 feet AGL
broken clouds at 1500 feet AGL
Weather: no significant weather observed at this time

METAR text: RJFG 220500Z 19012G23KT 150V230 6000 -SHRA FEW006 SCT010 BKN015 25/24 Q1003
Conditions at: RJFG (TANEGASHIMA AIRP, JP) observed 0500 UTC 22 September 2019
Temperature: 25.0°C (77°F)
Dewpoint: 24.0°C (75°F) [RH = 94%]
Pressure (altimeter): 29.62 inches Hg (1003.0 mb)
Winds: from the S (190 degrees) at 14 MPH (12 knots; 6.2 m/s)
gusting to 26 MPH (23 knots; 11.8 m/s)
Visibility: 4 miles ( 6 km)
Ceiling: 1500 feet AGL
Clouds: few clouds at 600 feet AGL
scattered clouds at 1000 feet AGL
broken clouds at 1500 feet AGL
Weather: -SHRA  (light rain showers)

METAR text: RJFG 220429Z 17016G30KT 140V200 6000 FEW004 SCT010 BKN020 26/24 Q1003 RMK 1ST004 3CU010 5CU020 A2962
Conditions at: RJFG (TANEGASHIMA AIRP, JP) observed 0429 UTC 22 September 2019
Temperature: 26.0°C (79°F)
Dewpoint: 24.0°C (75°F) [RH = 89%]
Pressure (altimeter): 29.62 inches Hg (1003.0 mb)
Winds: from the S (170 degrees) at 18 MPH (16 knots; 8.2 m/s)
gusting to 34 MPH (30 knots; 15.4 m/s)
Visibility: 4 miles ( 6 km)
Ceiling: 2000 feet AGL
Clouds: few clouds at 400 feet AGL
scattered clouds at 1000 feet AGL
broken clouds at 2000 feet AGL
Weather: no significant weather observed at this time

METAR text: RJFG 220400Z 17018G30KT 130V200 3000 R31/1300VP1800D -SHRA BR FEW001 SCT006 BKN012 25/24 Q1003
Conditions at: RJFG (TANEGASHIMA AIRP, JP) observed 0400 UTC 22 September 2019
Temperature: 25.0°C (77°F)
Dewpoint: 24.0°C (75°F) [RH = 94%]
Pressure (altimeter): 29.62 inches Hg (1003.0 mb)
Winds: from the S (170 degrees) at 21 MPH (18 knots; 9.3 m/s)
gusting to 34 MPH (30 knots; 15.4 m/s)
Visibility: 1.86 miles (2.99 km)
Ceiling: 1200 feet AGL
Clouds: few clouds at 100 feet AGL
scattered clouds at 600 feet AGL
broken clouds at 1200 feet AGL
Weather: -SHRA BR  (light rain showers, mist)

METAR text: RJFG 220342Z 17018G35KT 3000 R31/0600VP1800U -SHRA BR FEW001 SCT004 BKN008 25/24 Q1003 RMK 1ST001 3ST004 5CU008 A2964
Conditions at: RJFG (TANEGASHIMA AIRP, JP) observed 0342 UTC 22 September 2019
Temperature: 25.0°C (77°F)
Dewpoint: 24.0°C (75°F) [RH = 94%]
Pressure (altimeter): 29.62 inches Hg (1003.0 mb)
Winds: from the S (170 degrees) at 21 MPH (18 knots; 9.3 m/s)
gusting to 40 MPH (35 knots; 18.0 m/s)
Visibility: 1.86 miles (2.99 km)
Ceiling: 800 feet AGL
Clouds: few clouds at 100 feet AGL
scattered clouds at 400 feet AGL
broken clouds at 800 feet AGL
Weather: -SHRA BR  (light rain showers, mist)

METAR text: RJFG 220331Z 17019G44KT 2000 R31/1000VP1800D +SHRA BR FEW004 SCT008 BKN012 25/23 Q1003 RMK 1ST004 3CU008 5CU012 A2964
Conditions at: RJFG (TANEGASHIMA AIRP, JP) observed 0331 UTC 22 September 2019
Temperature: 25.0°C (77°F)
Dewpoint: 23.0°C (73°F) [RH = 89%]
Pressure (altimeter): 29.62 inches Hg (1003.0 mb)
Winds: from the S (170 degrees) at 22 MPH (19 knots; 9.8 m/s)
gusting to 51 MPH (44 knots; 22.6 m/s)
Visibility: 1.24 miles (2.00 km)
Ceiling: 1200 feet AGL
Clouds: few clouds at 400 feet AGL
scattered clouds at 800 feet AGL
broken clouds at 1200 feet AGL
Weather: +SHRA BR  (heavy rain showers, mist)

METAR text: RJFG 220300Z 16018G29KT 3000 R31/1400VP1800D SHRA BR FEW005 SCT008 BKN015 26/24 Q1004
Conditions at: RJFG (TANEGASHIMA AIRP, JP) observed 0300 UTC 22 September 2019
Temperature: 26.0°C (79°F)
Dewpoint: 24.0°C (75°F) [RH = 89%]
Pressure (altimeter): 29.65 inches Hg (1004.0 mb)
Winds: from the SSE (160 degrees) at 21 MPH (18 knots; 9.3 m/s)
gusting to 33 MPH (29 knots; 14.9 m/s)
Visibility: 1.86 miles (2.99 km)
Ceiling: 1500 feet AGL
Clouds: few clouds at 500 feet AGL
scattered clouds at 800 feet AGL
broken clouds at 1500 feet AGL
Weather: SHRA BR  (rain showers, mist)

METAR text: RJFG 220236Z 16020G34KT 5000 -SHRA BR FEW005 SCT008 BKN020 26/24 Q1004 RMK 1ST005 3CU008 5CU020 A2966
Conditions at: RJFG (TANEGASHIMA AIRP, JP) observed 0236 UTC 22 September 2019
Temperature: 26.0°C (79°F)
Dewpoint: 24.0°C (75°F) [RH = 89%]
Pressure (altimeter): 29.65 inches Hg (1004.0 mb)
Winds: from the SSE (160 degrees) at 23 MPH (20 knots; 10.3 m/s)
gusting to 39 MPH (34 knots; 17.5 m/s)
Visibility: 3 miles ( 5 km)
Ceiling: 2000 feet AGL
Clouds: few clouds at 500 feet AGL
scattered clouds at 800 feet AGL
broken clouds at 2000 feet AGL
Weather: -SHRA BR  (light rain showers, mist)

METAR text: RJFG 220223Z 16020G32KT 3000 R31/0300VP1800D +SHRA BR FEW005 SCT009 BKN012 26/24 Q1004 RMK 1ST005 3CU009 5CU012 A2966 RI++
Conditions at: RJFG (TANEGASHIMA AIRP, JP) observed 0223 UTC 22 September 2019
Temperature: 26.0°C (79°F)
Dewpoint: 24.0°C (75°F) [RH = 89%]
Pressure (altimeter): 29.65 inches Hg (1004.0 mb)
Winds: from the SSE (160 degrees) at 23 MPH (20 knots; 10.3 m/s)
gusting to 37 MPH (32 knots; 16.5 m/s)
Visibility: 1.86 miles (2.99 km)
Ceiling: 1200 feet AGL
Clouds: few clouds at 500 feet AGL
scattered clouds at 900 feet AGL
broken clouds at 1200 feet AGL
Weather: +SHRA BR  (heavy rain showers, mist)

METAR text: RJFG 220200Z 16018G34KT 6000 -SHRA FEW010 SCT015 BKN020 26/24 Q1005
Conditions at: RJFG (TANEGASHIMA AIRP, JP) observed 0200 UTC 22 September 2019
Temperature: 26.0°C (79°F)
Dewpoint: 24.0°C (75°F) [RH = 89%]
Pressure (altimeter): 29.68 inches Hg (1005.0 mb)
Winds: from the SSE (160 degrees) at 21 MPH (18 knots; 9.3 m/s)
gusting to 39 MPH (34 knots; 17.5 m/s)
Visibility: 4 miles ( 6 km)
Ceiling: 2000 feet AGL
Clouds: few clouds at 1000 feet AGL
scattered clouds at 1500 feet AGL
broken clouds at 2000 feet AGL
Weather: -SHRA  (light rain showers)

METAR text: RJFG 220100Z 15019G35KT 6000 -SHRA FEW010 SCT015 BKN020 26/24 Q1005
Conditions at: RJFG (TANEGASHIMA AIRP, JP) observed 0100 UTC 22 September 2019
Temperature: 26.0°C (79°F)
Dewpoint: 24.0°C (75°F) [RH = 89%]
Pressure (altimeter): 29.68 inches Hg (1005.0 mb)
Winds: from the SSE (150 degrees) at 22 MPH (19 knots; 9.8 m/s)
gusting to 40 MPH (35 knots; 18.0 m/s)
Visibility: 4 miles ( 6 km)
Ceiling: 2000 feet AGL
Clouds: few clouds at 1000 feet AGL
scattered clouds at 1500 feet AGL
broken clouds at 2000 feet AGL
Weather: -SHRA  (light rain showers)

METAR text: RJFG 220000Z 14022G37KT 120V180 5000 -SHRA BR FEW010 SCT015 BKN020 26/24 Q1005
Conditions at: RJFG (TANEGASHIMA AIRP, JP) observed 0000 UTC 22 September 2019
Temperature: 26.0°C (79°F)
Dewpoint: 24.0°C (75°F) [RH = 89%]
Pressure (altimeter): 29.68 inches Hg (1005.0 mb)
Winds: from the SE (140 degrees) at 25 MPH (22 knots; 11.3 m/s)
gusting to 43 MPH (37 knots; 19.0 m/s)
Visibility: 3 miles ( 5 km)
Ceiling: 2000 feet AGL
Clouds: few clouds at 1000 feet AGL
scattered clouds at 1500 feet AGL
broken clouds at 2000 feet AGL
Weather: -SHRA BR  (light rain showers, mist)

METAR text: RJFG 212330Z 14024G35KT 6000 -SHRA FEW010 SCT015 BKN020 26/24 Q1005
Conditions at: RJFG (TANEGASHIMA AIRP, JP) observed 2330 UTC 21 September 2019
Temperature: 26.0°C (79°F)
Dewpoint: 24.0°C (75°F) [RH = 89%]
Pressure (altimeter): 29.68 inches Hg (1005.0 mb)
Winds: from the SE (140 degrees) at 28 MPH (24 knots; 12.3 m/s)
gusting to 40 MPH (35 knots; 18.0 m/s)
Visibility: 4 miles ( 6 km)
Ceiling: 2000 feet AGL
Clouds: few clouds at 1000 feet AGL
scattered clouds at 1500 feet AGL
broken clouds at 2000 feet AGL
Weather: -SHRA  (light rain showers)

METAR text: RJFG 212310Z 14021G31KT 6000 -SHRA FEW010 SCT015 BKN020 26/24 Q1005 RMK 1CU010 3CU015 5CU020 A2970
Conditions at: RJFG (TANEGASHIMA AIRP, JP) observed 2310 UTC 21 September 2019
Temperature: 26.0°C (79°F)
Dewpoint: 24.0°C (75°F) [RH = 89%]
Pressure (altimeter): 29.68 inches Hg (1005.0 mb)
Winds: from the SE (140 degrees) at 24 MPH (21 knots; 10.8 m/s)
gusting to 36 MPH (31 knots; 15.9 m/s)
Visibility: 4 miles ( 6 km)
Ceiling: 2000 feet AGL
Clouds: few clouds at 1000 feet AGL
scattered clouds at 1500 feet AGL
broken clouds at 2000 feet AGL
Weather: -SHRA  (light rain showers)

METAR text: RJFG 210900Z 12017G27KT 5000 BR FEW006 SCT010 BKN012 27/25 Q1010
Conditions at: RJFG (TANEGASHIMA AIRP, JP) observed 0900 UTC 21 September 2019
Temperature: 27.0°C (81°F)
Dewpoint: 25.0°C (77°F) [RH = 89%]
Pressure (altimeter): 29.82 inches Hg (1010.0 mb)
Winds: from the ESE (120 degrees) at 20 MPH (17 knots; 8.7 m/s)
gusting to 31 MPH (27 knots; 13.9 m/s)
Visibility: 3 miles ( 5 km)
Ceiling: 1200 feet AGL
Clouds: few clouds at 600 feet AGL
scattered clouds at 1000 feet AGL
broken clouds at 1200 feet AGL
Weather: BR  (mist)

METAR text: RJFG 210800Z 11016G28KT 6000 FEW006 SCT010 BKN013 26/24 Q1009
Conditions at: RJFG (TANEGASHIMA AIRP, JP) observed 0800 UTC 21 September 2019
Temperature: 26.0°C (79°F)
Dewpoint: 24.0°C (75°F) [RH = 89%]
Pressure (altimeter): 29.79 inches Hg (1009.0 mb)
Winds: from the ESE (110 degrees) at 18 MPH (16 knots; 8.2 m/s)
gusting to 32 MPH (28 knots; 14.4 m/s)
Visibility: 4 miles ( 6 km)
Ceiling: 1300 feet AGL
Clouds: few clouds at 600 feet AGL
scattered clouds at 1000 feet AGL
broken clouds at 1300 feet AGL
Weather: no significant weather observed at this time

METAR text: RJFG 210700Z 11018G28KT 6000 FEW006 SCT010 BKN013 27/25 Q1009
Conditions at: RJFG (TANEGASHIMA AIRP, JP) observed 0700 UTC 21 September 2019
Temperature: 27.0°C (81°F)
Dewpoint: 25.0°C (77°F) [RH = 89%]
Pressure (altimeter): 29.79 inches Hg (1009.0 mb)
Winds: from the ESE (110 degrees) at 21 MPH (18 knots; 9.3 m/s)
gusting to 32 MPH (28 knots; 14.4 m/s)
Visibility: 4 miles ( 6 km)
Ceiling: 1300 feet AGL
Clouds: few clouds at 600 feet AGL
scattered clouds at 1000 feet AGL
broken clouds at 1300 feet AGL
Weather: no significant weather observed at this time

METAR text: RJFG 210600Z 11014G25KT 6000 FEW006 SCT010 BKN013 27/25 Q1009
Conditions at: RJFG (TANEGASHIMA AIRP, JP) observed 0600 UTC 21 September 2019
Temperature: 27.0°C (81°F)
Dewpoint: 25.0°C (77°F) [RH = 89%]
Pressure (altimeter): 29.79 inches Hg (1009.0 mb)
Winds: from the ESE (110 degrees) at 16 MPH (14 knots; 7.2 m/s)
gusting to 29 MPH (25 knots; 12.9 m/s)
Visibility: 4 miles ( 6 km)
Ceiling: 1300 feet AGL
Clouds: few clouds at 600 feet AGL
scattered clouds at 1000 feet AGL
broken clouds at 1300 feet AGL
Weather: no significant weather observed at this time

METAR text: RJFG 210500Z 11015KT 6000 FEW008 SCT010 BKN015 27/24 Q1009
Conditions at: RJFG (TANEGASHIMA AIRP, JP) observed 0500 UTC 21 September 2019
Temperature: 27.0°C (81°F)
Dewpoint: 24.0°C (75°F) [RH = 84%]
Pressure (altimeter): 29.79 inches Hg (1009.0 mb)
Winds: from the ESE (110 degrees) at 17 MPH (15 knots; 7.7 m/s)
Visibility: 4 miles ( 6 km)
Ceiling: 1500 feet AGL
Clouds: few clouds at 800 feet AGL
scattered clouds at 1000 feet AGL
broken clouds at 1500 feet AGL
Weather: no significant weather observed at this time